Forside
METAR-TAF:

METAR-TAF

Lufthavne :

Milford Municipal Airport (Ben and Judy Briscoe Field)

Milford, Utah, USA

Breddekreds: 38-25-21N, længdekreds: 113-00-35W, højde: 1536 m

Aktuelle vejr

Denne rapport blev lavet for 43 minutter siden, kl. 06:52 UTC
Vind 9 kt fra sydsydvest
Temperatur 1°C
Fugtighed 69%
Tryk 1021 hPa
Sigt: 16.1 km
skyfri

METAR: KMLF 290652Z AUTO 21009KT 10SM CLR 01/M04 A3015 RMK AO2 SLP207 T00061044 401331067

Tid: 00:35 (07:35 UTC)


TAF: fraværende

Vejrobservationer og prognoser fra mere end 4000 lufthavne (METAR og TAF).

De gule og røde prikker repræsenterer de meteorologiske stationer.

Flyt musen over at se navnet på stationen.

Så klik over at se vejr observationer og prognoser.

At skifte det kort: Klik på de grønne knapper med et sort kors for at zoome ind; på den grønne knap med en bindestreg for at zoome ud; eller på de grønne pile for tilstødende kort.


METAR-TAF: